This is the latest recevied weather packets stored in our database for station/object OE7BJT-13. If no packets are shown the sender has not sent any weather packets the latest 10 day(s).
| Time | Temp. | Humidity | Pressure | Rain* | Wind** | Luminosity | Snow |
|---|---|---|---|---|---|---|---|
| 1777540321 | 15.56° C | 36% | 1024 hPa | - | - | - | - |
| 1777539715 | 15° C | 37% | 1024 hPa | - | - | - | - |
| 1777539109 | 15° C | 36% | 1024 hPa | - | - | - | - |
| 1777538504 | 13.89° C | 41% | 1024 hPa | - | - | - | - |
| 1777535476 | 11.67° C | 47% | 1024 hPa | - | - | - | - |
| 1777534870 | 11.11° C | 51% | 1025 hPa | - | - | - | - |
| 1777534264 | 10° C | 53% | 1025 hPa | - | - | - | - |
| 1777533659 | 10° C | 53% | 1025 hPa | - | - | - | - |
| 1777533053 | 9.44° C | 56% | 1025 hPa | - | - | - | - |
| 1777532448 | 8.89° C | 58% | 1025 hPa | - | - | - | - |
| 1777531842 | 8.33° C | 62% | 1025 hPa | - | - | - | - |
| 1777530631 | 6.11° C | 70% | 1025 hPa | - | - | - | - |
| 1777530025 | 5° C | 74% | 1025 hPa | - | - | - | - |
| 1777529420 | 4.44° C | 76% | 1025 hPa | - | - | - | - |
| 1777528814 | 3.89° C | 80% | 1025 hPa | - | - | - | - |
| 1777527603 | 3.33° C | 90% | 1025 hPa | - | - | - | - |
| 1777526392 | 2.78° C | 88% | 1025 hPa | - | - | - | - |
| 1777525786 | 2.78° C | 88% | 1025 hPa | - | - | - | - |
| 1777525181 | 1.67° C | 92% | 1025 hPa | - | - | - | - |
| 1777523969 | 2.22° C | 89% | 1025 hPa | - | - | - | - |
| 1777523364 | 2.22° C | 89% | 1025 hPa | - | - | - | - |
| 1777522758 | 2.22° C | 95% | 1025 hPa | - | - | - | - |
| 1777522153 | 1.67° C | 91% | 1024 hPa | - | - | - | - |
| 1777521547 | 1.67° C | 90% | 1024 hPa | - | - | - | - |
| 1777520941 | 1.67° C | 89% | 1024 hPa | - | - | - | - |
* Rain since midnight (hover to see other rain measurements)
** Current wind speed in m/s (hover to see current wind gust speed)